2022-12-08   01:05:44
Valitse kilpailu:

Valitse kieli:
Swedish English Denmark Finland Slovenia

Ohjelma Open Nordic Masters 2019

Alla löytyy osallistujaluetteloita ja lähtölistoja jaettuna kilpailujaksoihin.

Kisajakso

Document
Entry List
Open Nordic Masters 2019
Place: Organizer: Vanders
Pool: 50m Competition Date: Oct 25, 2019 to Oct 27, 2019
28 100m Rintauinti Miehet
# ID Name Team Born License Pool Entry
time
Status
1 714 Sergey Gogol Neva Stars 1981 50m 1:06.44
2 401 Juha Kollin Vaasan Uimaseura-Vasa
Simsälls
1993 93A900 50m 1:07.72
3 645 Erik Löfgren-Bengtson Solna Sundbyberg SS 04 1989 AP4789 50m 1:08.55
4 56 Emil Andersen Svømmeklubben Triton
Ballerup
1992 9273AH 50m 1:11.64
5 358 Lauri Vilhunen Varkauden Uimarit 1985 85A080 50m 1:12.94
6 326 Aki Tuomaala Kouvolan Uimarit 1991 91A438 50m 1:13.93
7 662 Aleksandr Fedotov Meisterujumise U-Klubi 1980 50m 1:14.34
8 171 Emil Svartström Helsingin Uimarit 1985 85A035 50m 1:14.45
9 96 Eerikki Rutanen Helsingfors Simsällskap 1972 72A002 50m 1:14.66
10 391 Antti Korri Kokkolan Uimaseura 1992 92A138 50m 1:14.83
11 31 Bernhard Auner Salzburger Turnverein
Schwimmen
1965 32456 50m 1:14.88
12 772 Pekka Koskinen Hyvinkään Uimaseura 1978 78A127 50m 1:15.97
13 738 Geir Inge Rimmereide Stord Kappsymjarlag 1970 50m 1:16.00
14 216 Vili Nykänen Simmis Wanda ry 1981 81A104 50m 1:16.54
15 289 Aki Inkilä Cetus Espoo 1977 77A032 50m 1:16.93
16 686 Hákon Jónsson Sunddeild Breiðabliks 1985 2905852
799
50m 1:17.00
17 576 Jaakko Heimo Speedo Masters Finland 1968 68A038 50m 1:17.12
18 90 Johan Carlén Täby Sim 1976 AB9576 50m 1:17.32
19 64 Eric Sjöström Lidingö Simklubb 1959 AA1759 50m 1:17.76
20 450 Mika Pöyhölä S.C. Pingviinit 1966 66A052 50m 1:18.08
21 709 Sergey Zherdev Neva Stars 1961 50m 1:18.15
22 647 Lars Hennert Solna Sundbyberg SS 04 1961 AA5561 50m 1:18.35
23 554 Markku Ahonen UPOT 1981 81A015 50m 1:18.57
24 496 Matti Nikula Oulun Lohet 1960 60A041 50m 1:19.11
25 747 Jan Mandahl Upsala Simsällskap 1961 AA5961 50m 1:19.22
26 303 Igor Korolev Cetus Espoo 1985 85A178 50m 1:19.53
27 741 Magne Klementsen Stord Kappsymjarlag 1961 50m 1:19.60
28 574 Kim Ohtonen Speedo Masters Finland 1966 66A044 50m 1:19.91
29 649 Stefan Behring Solna Sundbyberg SS 04 1974 AB1974 50m 1:19.99
30 6 Henrik Roos Eskilstuna Simklubb 1964 AB6364 50m 1:20.01
31 272 Aki Jormanainen Cetus Espoo 1977 77A009 50m 1:20.10
32 628 Aarne Hakanen Swimming Team Rauma 1977 77A035 50m 1:20.19
33 593 Juha-Pekka Iivonen Uinti Imatra 1959 59A042 50m 1:20.42
34 421 Mauri Kanto Kauhajoen Karhu 1963 63A045 50m 1:21.04
35 403 Kai Mustonen Vaasan Uimaseura-Vasa
Simsälls
1966 66A049 50m 1:21.08
36 376 Tuomas Virtanen Swimming Jyväskylä 1992 92B125 50m 1:21.29
37 676 Finnbjörn Aðalheiðarson Sundfélagið Ægir 1969 50m 1:21.48
38 354 Esa Vatanen Brahean Uimarit 1967 67A078 50m 1:22.78
39 503 Esa Päätalo Oulun Uinti 1906 1965 65A041 50m 1:23.14
40 560 Sami Kähkönen Hydra Platypus 1969 69A059 50m 1:23.46
41 734 Svein Erik Nymo Oslo Idrettslag 1959 50m 1:23.86
42 668 Aleksandr Batistsev Meisterujumise U-Klubi 1953 50m 1:25.00
43 744 Rolf Martin  Breisnes Sogndal IL 1965 50m 1:25.45
44 723 Aleksandr Kulakov Neva Stars 1983 50m 1:25.50
45 462 Vesa Perttula S.C. Pingviinit 1981 81A106 50m 1:25.50
46 397 Christer Burman Vaasan Uimaseura-Vasa
Simsälls
1968 68A005 50m 1:25.57
47 9 Bo Almqvist Helsingborgs Simsällskap 1958 AA3358 50m 1:25.92
48 591 Jukka Lehtola Uinti Imatra 1968 68A008 50m 1:26.27
49 601 István Beszteri Vanders 1973 73A066 50m 1:26.48
50 488 Tommi Kahlos Aurajoen Uinti Ry 1978 78A131 50m 1:26.56
51 352 Ensio Vatanen Brahean Uimarit 1964 64A062 50m 1:26.76
52 603 Jun Kojima Vanders 1971 71A075 50m 1:27.91
53 497 Timo Siika-aho Oulun Lohet 1968 68A027 50m 1:27.97
54 682 Guðmundur Björnsson Sunddeild Breiðabliks 50m 1:28.07
1975 1804754
519
55 398 Hannu Kuokkanen Vaasan Uimaseura-Vasa
Simsälls
1948 48A002 50m 1:28.13
56 297 Ville Alopaeus Cetus Espoo 1971 71A065 50m 1:28.14
57 301 Aki Kattelus Cetus Espoo 1972 72A078 50m 1:29.40
58 28 Pär Angerfelt Tyresö Simsällskap 1973 AB6773 50m 1:30.00
59 344 Matti Kurki Lahden Kaleva 1975 75A114 50m 1:31.51
60 542 Hannu Koivisto ORCA Helsinki 1953 53A010 50m 1:32.76
61 753 Torbjørn Hiis  Bergh Bergen og Omegn Masters 1959 50m 1:33.00
62 65 Carl Magnus Helin Lidingö Simklubb 1976 AB3376 50m 1:33.01
63 781 Peter Herzig Schwimmklub Bern 1980 50m 1:33.44
64 671 Aksel Luige Meisterujumise U-Klubi 1949 50m 1:33.45
65 770 Harri Koski Hyvinkään Uimaseura 1957 57A024 50m 1:33.53
66 268 Eero Elovaara Cetus Espoo 1956 56A000 50m 1:33.60
67 508 Miikka Mattila Oulun Uinti 1906 1977 77A112 50m 1:33.98
68 761 Jens Halgreen Herlev Svømning 1954 5401AA 50m 1:36.00
69 505 Jaakko Erkinaro Oulun Uinti 1906 1963 63A066 50m 1:36.05
70 598 Arvo Musikka Vanders 1959 59A054 50m 1:36.90
71 195 Ari Savulahti Riihimäen Uimaseura 1972 72A051 50m 1:37.28
72 283 Timo Teponoja Cetus Espoo 1955 55A007 50m 1:37.77
73 79 Peter Karlsson Västerås Simsällskap 1963 AB0563 50m 1:37.93
74 305 Pavel Kobychev Cetus Espoo 1971 71A080 50m 1:38.23 LAT
75 80 Håkan Quist Västerås Simsällskap 1961 AB4361 50m 1:38.83
76 359 Timo Rastas Varkauden Uimarit 1976 76A117 50m 1:39.05
77 667 Ossi Vallemaa Meisterujumise U-Klubi 1954 50m 1:39.30
78 78 Ulf Brangefält Västerås Simsällskap 1942 AA9142 50m 1:40.17
79 523 Johan Carlson Kempeleen Pyrintö 1978 78A139 50m 1:40.22
80 274 Juha Pakkanen Cetus Espoo 1960 60A010 50m 1:40.75
81 40 Pål Brage Gundersen Asker SK 1981 1031610
2
50m 1:42.02
82 592 Esa Ihalainen Uinti Imatra 1954 54A022 50m 1:42.56
83 395 Markku Piiroinen Vaasan Uimaseura-Vasa
Simsälls
1960 60A000 50m 1:44.49
84 332 Juha Kainulainen Kuopion Uimaseura 1954 54A024 50m 1:47.54
85 277 Arto Mynttinen Cetus Espoo 1948 48A005 50m 1:48.92
86 292 Pekka Purra Cetus Espoo 1946 46A016 50m 1:55.47
87 448 Rafik Neuman S.C. Pingviinit 1948 48A012 50m 1:58.73
88 364 Markku Ikkala Swimming Jyväskylä 1947 47A005 50m 1:58.87
89 282 Juha Koski Cetus Espoo 1942 42A003 50m 1:58.90
90 270 Martti Lahti Cetus Espoo 1937 37A000 50m 2:03.94
91 540 Jussi Kyröhonka ORCA Helsinki 1979 79A012 50m
92 779 Jarkko Mikkola Hyvinkään Uimaseura 1969 69A091 50m
93 604 Niko Rantsi Vanders 1968 68A084 50m
94 478 Mauri Elokoski Uinti-Vakka 1989 89A097 50m
95 537 Markus Salmela Gamla Polare urheiluseura 1983 83A063 50m
2019-10-24 13.45.27 Datahandling: WinGrodan 2.4 Licensed to: Suomen Uimaliitto

LiveTiming iPhone Banner

LiveTiming iPhone Banner